createdAt,value
2024-05-09T00:00:40.855Z,19.45
2024-05-09T00:03:27.106Z,18.85
2024-05-09T00:06:13.226Z,19.49
2024-05-09T00:08:58.586Z,19.57
2024-05-09T00:11:43.740Z,19.24
2024-05-09T00:14:30.085Z,21.69
2024-05-09T00:17:15.524Z,22.04
2024-05-09T00:20:01.041Z,22.89
2024-05-09T00:22:46.470Z,22.07
2024-05-09T00:25:32.126Z,22.10
2024-05-09T00:28:17.579Z,22.37
2024-05-09T00:31:03.157Z,20.74
2024-05-09T00:33:48.842Z,20.81
2024-05-09T00:36:34.269Z,21.41
2024-05-09T00:39:19.393Z,22.31
2024-05-09T00:42:04.999Z,21.49
2024-05-09T00:44:50.131Z,21.39
2024-05-09T00:47:36.476Z,20.44
2024-05-09T00:50:29.843Z,23.03
2024-05-09T00:53:21.834Z,20.89
2024-05-09T00:56:11.840Z,21.85
2024-05-09T00:58:57.528Z,21.97
2024-05-09T01:01:45.773Z,20.69
2024-05-09T01:04:31.119Z,21.03
2024-05-09T01:07:16.790Z,20.95
2024-05-09T01:10:02.414Z,20.93
2024-05-09T01:12:47.657Z,20.04
2024-05-09T01:15:34.327Z,20.13
2024-05-09T01:18:20.238Z,19.35
2024-05-09T01:21:08.307Z,18.67
2024-05-09T01:23:53.520Z,18.19
2024-05-09T01:26:38.608Z,19.71
2024-05-09T01:29:24.441Z,20.36
2024-05-09T01:32:09.703Z,19.05
2024-05-09T01:34:56.284Z,19.80
2024-05-09T01:37:41.676Z,19.37
2024-05-09T01:40:36.323Z,19.65
2024-05-09T01:43:24.522Z,19.87
2024-05-09T01:46:19.138Z,20.24
2024-05-09T01:49:04.795Z,19.20
2024-05-09T01:51:50.316Z,21.24
2024-05-09T01:54:37.203Z,19.52
2024-05-09T01:57:22.574Z,18.70
2024-05-09T02:00:10.297Z,19.26
2024-05-09T02:02:55.609Z,18.85
2024-05-09T02:05:42.443Z,18.92
2024-05-09T02:08:27.649Z,18.93
2024-05-09T02:11:13.478Z,19.67
2024-05-09T02:13:58.761Z,18.73
2024-05-09T02:16:44.285Z,17.42
2024-05-09T02:19:29.921Z,17.22
2024-05-09T02:22:15.300Z,16.52
2024-05-09T02:25:00.841Z,17.40
2024-05-09T02:27:45.793Z,17.65
2024-05-09T02:30:39.269Z,18.10
2024-05-09T02:33:27.103Z,16.82
2024-05-09T02:36:12.757Z,16.81
2024-05-09T02:38:58.202Z,17.53
2024-05-09T02:41:43.300Z,17.20
2024-05-09T02:44:28.712Z,16.57
2024-05-09T02:47:14.320Z,16.44
2024-05-09T02:49:59.795Z,15.97
2024-05-09T02:52:45.359Z,16.37
2024-05-09T02:55:30.911Z,17.30
2024-05-09T02:58:16.468Z,17.50
2024-05-09T03:01:02.145Z,17.47
2024-05-09T03:03:48.447Z,17.28
2024-05-09T03:06:34.136Z,17.22
2024-05-09T03:09:19.338Z,16.49
2024-05-09T03:12:05.465Z,15.69
2024-05-09T03:14:50.895Z,15.95
2024-05-09T03:17:36.561Z,15.08
2024-05-09T03:20:27.352Z,14.80
2024-05-09T03:23:16.150Z,14.23
2024-05-09T03:26:01.675Z,14.72
2024-05-09T03:28:47.265Z,13.58
2024-05-09T03:31:33.147Z,12.97
2024-05-09T03:34:18.484Z,14.34
2024-05-09T03:37:04.187Z,14.17
2024-05-09T03:39:49.815Z,13.62
2024-05-09T03:42:40.681Z,13.74
2024-05-09T03:45:26.053Z,12.81
2024-05-09T03:48:12.123Z,11.87
2024-05-09T03:50:57.669Z,12.30
2024-05-09T03:53:43.266Z,12.05
2024-05-09T03:56:28.828Z,11.46
2024-05-09T03:59:14.226Z,11.65
2024-05-09T04:01:59.777Z,11.19
2024-05-09T04:04:45.401Z,10.06
2024-05-09T04:07:37.792Z,9.87
2024-05-09T04:10:30.505Z,9.69
2024-05-09T04:13:18.867Z,10.79
2024-05-09T04:16:05.146Z,11.37
2024-05-09T04:18:50.643Z,10.72
2024-05-09T04:21:36.129Z,11.54
2024-05-09T04:24:21.569Z,11.50
2024-05-09T04:27:06.966Z,11.57
2024-05-09T04:29:54.679Z,11.08
2024-05-09T04:32:40.103Z,11.22
2024-05-09T04:35:26.379Z,11.08
2024-05-09T04:38:14.610Z,11.44
2024-05-09T04:41:01.490Z,11.98
2024-05-09T04:43:47.796Z,12.89
2024-05-09T04:46:33.410Z,12.98
2024-05-09T04:49:18.886Z,12.43
2024-05-09T04:52:04.540Z,12.23
2024-05-09T04:54:49.712Z,11.78
2024-05-09T04:57:35.074Z,12.61
2024-05-09T05:00:28.472Z,12.97
2024-05-09T05:03:23.872Z,13.34
2024-05-09T05:06:09.503Z,13.38
2024-05-09T05:08:54.720Z,13.93
2024-05-09T05:11:39.809Z,13.67
2024-05-09T05:14:25.351Z,13.56
2024-05-09T05:17:10.363Z,14.21
2024-05-09T05:19:56.747Z,13.75
2024-05-09T05:22:43.586Z,13.94
2024-05-09T05:25:29.045Z,14.33
2024-05-09T05:28:17.421Z,16.16
2024-05-09T05:31:02.950Z,17.03
2024-05-09T05:33:48.900Z,16.69
2024-05-09T05:36:34.144Z,16.75
2024-05-09T05:39:29.439Z,17.32
2024-05-09T05:42:14.807Z,16.00
2024-05-09T05:45:00.789Z,16.86
2024-05-09T05:47:46.379Z,16.57
2024-05-09T05:50:36.207Z,17.08
2024-05-09T05:53:23.308Z,17.65
2024-05-09T05:56:08.845Z,17.42
2024-05-09T05:58:54.221Z,17.17
2024-05-09T06:01:39.996Z,17.09
2024-05-09T06:04:25.578Z,16.24
2024-05-09T06:07:11.197Z,16.64
2024-05-09T06:09:56.592Z,16.65
2024-05-09T06:12:41.735Z,16.00
2024-05-09T06:15:32.360Z,16.71
2024-05-09T06:18:17.912Z,16.44
2024-05-09T06:21:03.653Z,17.08
2024-05-09T06:23:53.368Z,16.49
2024-05-09T06:26:43.613Z,16.78
2024-05-09T06:29:29.280Z,17.53
2024-05-09T06:32:17.324Z,17.96
2024-05-09T06:35:02.807Z,18.75
2024-05-09T06:37:48.431Z,18.04
2024-05-09T06:40:37.646Z,17.99
2024-05-09T06:43:25.077Z,18.19
2024-05-09T06:46:10.519Z,17.89
2024-05-09T06:49:04.264Z,18.89
2024-05-09T06:51:49.820Z,17.77
2024-05-09T06:54:35.034Z,17.86
2024-05-09T06:57:21.315Z,17.65
2024-05-09T07:00:10.245Z,17.55
2024-05-09T07:02:59.689Z,17.53
2024-05-09T07:05:48.656Z,17.09
2024-05-09T07:08:35.113Z,16.95
2024-05-09T07:11:20.575Z,16.98
2024-05-09T07:14:13.881Z,16.27
2024-05-09T07:17:00.345Z,15.84
2024-05-09T07:19:46.723Z,16.00
2024-05-09T07:22:31.828Z,15.22
2024-05-09T07:25:18.807Z,14.65
2024-05-09T07:28:04.573Z,14.11
2024-05-09T07:30:49.797Z,13.14
2024-05-09T07:33:35.530Z,12.77
2024-05-09T07:36:20.752Z,11.49
2024-05-09T07:39:06.038Z,11.24
2024-05-09T07:41:51.150Z,10.65
2024-05-09T07:44:36.481Z,10.79
2024-05-09T07:48:32.094Z,9.71
2024-05-09T07:53:37.788Z,8.87
2024-05-09T07:56:22.637Z,8.73
2024-05-09T07:59:09.195Z,7.84
2024-05-09T08:01:54.244Z,8.14
2024-05-09T08:04:39.853Z,7.95
2024-05-09T08:07:26.524Z,7.99
2024-05-09T08:10:15.391Z,7.61
2024-05-09T08:13:04.032Z,7.55
2024-05-09T08:15:49.369Z,7.13
2024-05-09T08:18:34.835Z,6.95
2024-05-09T08:21:20.335Z,7.35
2024-05-09T08:24:07.899Z,6.95
2024-05-09T08:26:53.183Z,7.08
2024-05-09T08:29:38.570Z,6.42
2024-05-09T08:32:23.876Z,6.40
2024-05-09T08:35:09.829Z,6.42
2024-05-09T08:38:02.809Z,6.73
2024-05-09T08:40:50.502Z,6.45
2024-05-09T08:43:39.029Z,6.19
2024-05-09T08:46:29.330Z,5.66
2024-05-09T08:49:16.424Z,4.85
2024-05-09T08:52:01.977Z,5.23
2024-05-09T08:54:47.368Z,4.58
2024-05-09T08:57:38.879Z,4.71
2024-05-09T09:00:35.857Z,4.68
2024-05-09T09:03:30.098Z,3.98
2024-05-09T09:06:21.869Z,3.65
2024-05-09T09:09:10.541Z,3.41
2024-05-09T09:11:55.671Z,3.33
2024-05-09T09:14:41.009Z,3.41
2024-05-09T09:17:26.514Z,3.07
2024-05-09T09:20:16.596Z,3.11
2024-05-09T09:23:05.037Z,3.14
2024-05-09T09:25:50.992Z,3.06
2024-05-09T09:28:37.238Z,3.11
2024-05-09T09:31:23.576Z,3.49
2024-05-09T09:34:09.431Z,3.23
2024-05-09T09:37:07.109Z,2.99
2024-05-09T09:39:54.191Z,3.07
2024-05-09T09:42:43.160Z,3.00
2024-05-09T09:45:29.664Z,3.11
2024-05-09T09:48:16.485Z,3.13
2024-05-09T09:51:05.460Z,3.07
2024-05-09T09:53:52.671Z,2.98
2024-05-09T09:56:42.068Z,3.12
2024-05-09T09:59:28.791Z,3.01
2024-05-09T10:02:14.474Z,2.92
2024-05-09T10:05:03.851Z,2.91
2024-05-09T10:07:50.591Z,2.96
2024-05-09T10:10:36.514Z,2.93
2024-05-09T10:13:35.307Z,2.90
2024-05-09T10:16:24.174Z,3.01
2024-05-09T10:19:26.552Z,2.71
2024-05-09T10:22:12.374Z,3.05
2024-05-09T10:25:07.494Z,2.86
2024-05-09T10:27:56.041Z,2.82
2024-05-09T10:30:43.328Z,2.94
2024-05-09T10:33:52.684Z,2.82
2024-05-09T10:36:43.580Z,2.64
2024-05-09T10:39:38.986Z,2.75
2024-05-09T10:42:26.796Z,2.65
2024-05-09T10:45:15.418Z,2.56
2024-05-09T10:48:02.543Z,2.68
2024-05-09T10:50:50.041Z,2.67
2024-05-09T10:53:46.449Z,2.68
2024-05-09T10:56:31.713Z,2.76
2024-05-09T10:59:16.863Z,2.51
2024-05-09T11:02:10.327Z,2.51
2024-05-09T11:04:56.066Z,2.53
2024-05-09T11:07:43.118Z,2.60
2024-05-09T11:10:33.826Z,2.79
2024-05-09T11:13:42.210Z,2.83
2024-05-09T11:16:27.577Z,2.51
2024-05-09T11:19:14.511Z,2.81
2024-05-09T11:22:02.157Z,2.73
2024-05-09T11:24:48.617Z,2.73
2024-05-09T11:27:33.849Z,2.73
2024-05-09T11:33:11.727Z,2.66
2024-05-09T11:35:59.603Z,2.74
2024-05-09T11:38:45.238Z,2.53
2024-05-09T11:41:31.353Z,2.62
2024-05-09T11:44:16.594Z,2.43
2024-05-09T11:47:04.809Z,2.07
2024-05-09T11:49:50.375Z,2.34
2024-05-09T11:52:35.674Z,2.24
2024-05-09T11:55:26.834Z,2.37
2024-05-09T11:58:15.033Z,2.54
2024-05-09T12:01:01.987Z,2.34
2024-05-09T12:03:49.369Z,2.40
2024-05-09T12:06:36.032Z,2.38
2024-05-09T12:09:21.763Z,2.47
2024-05-09T12:12:06.940Z,2.62
2024-05-09T12:14:56.173Z,2.46
2024-05-09T12:17:41.711Z,2.36
2024-05-09T12:20:37.032Z,2.34
2024-05-09T12:23:24.583Z,2.11
2024-05-09T12:26:10.815Z,2.16
2024-05-09T12:28:56.048Z,2.15
2024-05-09T12:31:41.820Z,2.33
2024-05-09T12:34:27.230Z,2.06
2024-05-09T12:37:13.847Z,2.08
2024-05-09T12:39:59.421Z,2.14
2024-05-09T12:42:44.962Z,2.21
2024-05-09T12:45:33.231Z,2.25
2024-05-09T12:48:18.710Z,2.07
2024-05-09T12:51:05.882Z,2.15
2024-05-09T12:53:51.673Z,2.13
2024-05-09T12:56:36.913Z,2.27
2024-05-09T12:59:22.095Z,2.26
2024-05-09T13:02:07.687Z,2.30
2024-05-09T13:04:53.278Z,2.38
2024-05-09T13:07:40.280Z,2.27
2024-05-09T13:10:32.019Z,2.06
2024-05-09T13:13:18.974Z,2.00
2024-05-09T13:16:05.140Z,2.09
2024-05-09T13:18:50.400Z,2.10
2024-05-09T13:21:36.533Z,2.19
2024-05-09T13:24:22.092Z,2.23
2024-05-09T13:27:07.533Z,1.95
2024-05-09T13:29:52.665Z,2.15
2024-05-09T13:32:39.483Z,2.25
2024-05-09T13:35:24.833Z,2.11
2024-05-09T13:38:11.097Z,2.16
2024-05-09T13:40:56.374Z,2.19
2024-05-09T13:43:42.794Z,2.20
2024-05-09T13:46:28.061Z,2.17
2024-05-09T13:49:16.896Z,2.31
2024-05-09T13:52:02.342Z,2.22
2024-05-09T13:54:49.976Z,1.78
2024-05-09T13:57:35.720Z,1.98
2024-05-09T14:03:09.580Z,2.01
2024-05-09T14:05:56.110Z,2.08
2024-05-09T14:08:41.966Z,2.07
2024-05-09T14:11:27.578Z,2.06
2024-05-09T14:14:12.982Z,2.27
2024-05-09T14:16:58.500Z,2.00
2024-05-09T14:19:44.223Z,2.03
2024-05-09T14:22:30.219Z,2.11
2024-05-09T14:25:15.513Z,2.14
2024-05-09T14:28:01.157Z,2.02
2024-05-09T14:30:46.726Z,2.14
2024-05-09T14:33:32.485Z,2.15
2024-05-09T14:36:22.101Z,2.12
2024-05-09T14:39:07.471Z,2.14
2024-05-09T14:41:52.665Z,2.19
2024-05-09T14:44:37.926Z,2.11
2024-05-09T14:47:23.809Z,2.20
2024-05-09T14:50:13.898Z,2.06
2024-05-09T14:53:05.915Z,2.10
2024-05-09T14:55:51.437Z,2.22
2024-05-09T14:58:37.043Z,2.07
2024-05-09T15:01:24.456Z,2.10
2024-05-09T15:04:10.079Z,2.03
2024-05-09T15:06:56.630Z,2.23
2024-05-09T15:09:42.368Z,2.18
2024-05-09T15:12:27.915Z,2.20
2024-05-09T15:15:13.130Z,1.93
2024-05-09T15:17:59.062Z,2.05
2024-05-09T15:20:45.809Z,2.22
2024-05-09T15:23:31.817Z,2.28
2024-05-09T15:26:17.065Z,2.02
2024-05-09T15:29:02.720Z,2.19
2024-05-09T15:31:48.353Z,2.21
2024-05-09T15:34:34.013Z,2.11
2024-05-09T15:37:21.028Z,2.16
2024-05-09T15:40:15.383Z,2.07
2024-05-09T15:43:10.531Z,2.14
2024-05-09T15:45:57.262Z,2.05
2024-05-09T15:48:44.765Z,2.27
2024-05-09T15:51:30.722Z,2.10
2024-05-09T15:54:17.524Z,2.10
2024-05-09T15:57:02.711Z,1.94
2024-05-09T15:59:48.816Z,1.93
2024-05-09T16:02:33.966Z,1.89
2024-05-09T16:05:19.995Z,1.91
2024-05-09T16:08:07.244Z,2.22
2024-05-09T16:10:52.687Z,2.22
2024-05-09T16:13:38.232Z,2.16
2024-05-09T16:16:23.841Z,2.17
2024-05-09T16:19:09.840Z,2.19
2024-05-09T16:21:56.310Z,2.11
2024-05-09T16:24:43.086Z,2.23
2024-05-09T16:27:28.618Z,1.88
2024-05-09T16:30:21.298Z,2.22
2024-05-09T16:33:13.664Z,2.31
2024-05-09T16:35:59.631Z,2.06
2024-05-09T16:38:45.539Z,1.94
2024-05-09T16:41:32.230Z,2.12
2024-05-09T16:44:18.074Z,2.25
2024-05-09T16:47:06.237Z,2.25
2024-05-09T16:49:52.916Z,2.13
2024-05-09T16:52:38.466Z,2.11
2024-05-09T16:55:26.833Z,2.27
2024-05-09T16:58:14.296Z,2.28
2024-05-09T17:00:59.678Z,2.19
2024-05-09T17:03:45.167Z,2.19
2024-05-09T17:06:30.839Z,2.08
2024-05-09T17:09:19.694Z,2.02
2024-05-09T17:12:07.688Z,2.20
2024-05-09T17:14:52.882Z,2.22
2024-05-09T17:17:38.619Z,2.07
2024-05-09T17:20:31.665Z,2.14
2024-05-09T17:23:20.819Z,1.92
2024-05-09T17:26:08.944Z,2.12
2024-05-09T17:28:55.076Z,2.11
2024-05-09T17:31:40.297Z,2.16
2024-05-09T17:34:26.013Z,2.16
2024-05-09T17:37:13.475Z,2.05
2024-05-09T17:39:59.082Z,2.27
2024-05-09T17:42:44.432Z,2.08
2024-05-09T17:45:30.332Z,2.11
2024-05-09T17:48:17.505Z,2.08
2024-05-09T17:51:04.365Z,2.12
2024-05-09T17:53:49.386Z,2.12
2024-05-09T17:56:34.428Z,2.23
2024-05-09T17:59:19.558Z,2.04
2024-05-09T18:02:05.423Z,2.04
2024-05-09T18:04:50.881Z,2.15
2024-05-09T18:07:37.800Z,2.24
2024-05-09T18:10:29.801Z,2.17
2024-05-09T18:13:21.207Z,2.22
2024-05-09T18:16:07.294Z,2.27
2024-05-09T18:18:53.104Z,2.42
2024-05-09T18:21:38.431Z,2.17
2024-05-09T18:24:24.673Z,2.33
2024-05-09T18:27:10.889Z,2.16
2024-05-09T18:29:56.208Z,2.21
2024-05-09T18:32:41.427Z,2.15
2024-05-09T18:35:27.075Z,2.32
2024-05-09T18:38:13.133Z,2.42
2024-05-09T18:40:58.570Z,2.28
2024-05-09T18:43:45.483Z,2.43
2024-05-09T18:46:34.158Z,2.42
2024-05-09T18:49:19.638Z,2.31
2024-05-09T18:52:05.484Z,2.44
2024-05-09T18:54:51.747Z,2.28
2024-05-09T18:57:37.157Z,2.18
2024-05-09T19:00:33.205Z,2.36
2024-05-09T19:03:22.555Z,2.53
2024-05-09T19:06:08.563Z,2.39
2024-05-09T19:08:53.809Z,2.33
2024-05-09T19:11:42.266Z,2.78
2024-05-09T19:14:27.780Z,2.37
2024-05-09T19:17:14.314Z,2.55
2024-05-09T19:20:00.004Z,2.51
2024-05-09T19:22:45.124Z,2.27
2024-05-09T19:25:30.293Z,2.44
2024-05-09T19:28:15.337Z,2.50
2024-05-09T19:31:01.560Z,2.53
2024-05-09T19:33:47.324Z,2.49
2024-05-09T19:36:33.644Z,2.55
2024-05-09T19:39:19.070Z,2.79
2024-05-09T19:42:04.742Z,2.67
2024-05-09T19:44:50.278Z,2.43
2024-05-09T19:47:35.854Z,2.61
2024-05-09T19:50:30.180Z,2.88
2024-05-09T19:53:22.252Z,2.82
2024-05-09T19:56:07.839Z,2.74
2024-05-09T19:58:55.070Z,2.67
2024-05-09T20:01:40.612Z,2.80
2024-05-09T20:04:25.964Z,2.62
2024-05-09T20:07:12.567Z,3.08
2024-05-09T20:09:58.017Z,2.88
2024-05-09T20:12:43.617Z,2.61
2024-05-09T20:15:29.058Z,2.63
2024-05-09T20:18:16.599Z,2.65
2024-05-09T20:21:02.819Z,2.93
2024-05-09T20:23:48.483Z,2.97
2024-05-09T20:26:33.527Z,3.23
2024-05-09T20:29:18.903Z,3.08
2024-05-09T20:32:04.769Z,3.28
2024-05-09T20:34:51.665Z,3.26
2024-05-09T20:37:36.625Z,3.20
2024-05-09T20:40:28.897Z,3.11
2024-05-09T20:43:18.589Z,3.15
2024-05-09T20:46:04.247Z,3.02
2024-05-09T20:48:49.451Z,2.93
2024-05-09T20:51:34.905Z,2.88
2024-05-09T20:54:20.519Z,2.82
2024-05-09T20:57:06.370Z,3.12
2024-05-09T20:59:51.738Z,3.15
2024-05-09T21:02:38.147Z,3.21
2024-05-09T21:05:23.413Z,3.19
2024-05-09T21:08:09.184Z,3.19
2024-05-09T21:10:54.642Z,2.96
2024-05-09T21:13:39.617Z,3.11
2024-05-09T21:16:24.724Z,3.14
2024-05-09T21:19:10.239Z,3.09
2024-05-09T21:21:55.947Z,3.23
2024-05-09T21:24:41.481Z,3.09
2024-05-09T21:27:26.950Z,3.03
2024-05-09T21:30:18.692Z,3.23
2024-05-09T21:33:14.122Z,3.05
2024-05-09T21:36:00.546Z,3.38
2024-05-09T21:38:45.929Z,3.21
2024-05-09T21:41:31.033Z,3.41
2024-05-09T21:44:16.095Z,3.07
2024-05-09T21:47:01.455Z,3.23
2024-05-09T21:49:46.577Z,3.30
2024-05-09T21:52:31.685Z,3.42
2024-05-09T21:55:17.115Z,3.52
2024-05-09T21:58:03.248Z,3.41
2024-05-09T22:00:49.202Z,3.47
2024-05-09T22:03:34.824Z,3.09
2024-05-09T22:06:20.069Z,3.29
2024-05-09T22:09:05.689Z,3.62
2024-05-09T22:11:52.950Z,3.31
2024-05-09T22:14:39.941Z,3.28
2024-05-09T22:17:25.187Z,3.39
2024-05-09T22:20:18.075Z,3.23
2024-05-09T22:23:08.711Z,3.34
2024-05-09T22:25:54.271Z,3.27
2024-05-09T22:28:39.225Z,3.35
2024-05-09T22:31:24.382Z,3.54
2024-05-09T22:34:09.870Z,3.60
2024-05-09T22:36:55.368Z,3.32
2024-05-09T22:39:40.975Z,3.40
2024-05-09T22:42:27.215Z,3.72
2024-05-09T22:45:12.516Z,3.89
2024-05-09T22:47:57.917Z,3.87
2024-05-09T22:50:43.539Z,3.87
2024-05-09T22:53:28.928Z,3.88
2024-05-09T22:56:14.985Z,3.80
2024-05-09T22:59:01.289Z,3.77
2024-05-09T23:01:47.293Z,3.77
2024-05-09T23:04:32.667Z,3.74
2024-05-09T23:07:18.336Z,3.77
2024-05-09T23:10:06.622Z,3.74
2024-05-09T23:12:56.293Z,3.98
2024-05-09T23:15:41.917Z,3.86
2024-05-09T23:18:27.157Z,3.80
2024-05-09T23:21:12.512Z,4.07
2024-05-09T23:23:57.659Z,3.90
2024-05-09T23:26:46.025Z,3.62
2024-05-09T23:29:31.563Z,3.83
2024-05-09T23:32:16.957Z,4.15
2024-05-09T23:35:02.552Z,3.86
2024-05-09T23:37:48.108Z,4.21
2024-05-09T23:40:39.264Z,4.04
2024-05-09T23:43:26.456Z,3.73
2024-05-09T23:46:11.899Z,3.76
2024-05-09T23:48:57.143Z,4.02
2024-05-09T23:51:42.704Z,4.06
2024-05-09T23:54:28.312Z,3.88
2024-05-09T23:57:13.539Z,3.73
